Terminal Aerodrome Forecast
Issued by NWS

Home | Current Version | Previous Version | Text Only | Print | Product List | Glossary On
Versions: 1 2 3 4 5 6 7 8 9 10 11 12 13 14 15
000
FTUS43 KIWX 020500
TAFSBN
TAF
KSBN 020529Z 0206/0306 22008KT P6SM SCT080
     FM020900 24005KT P6SM VCSH SCT040 OVC080
     FM021400 28008KT P6SM SCT040
     FM030100 30004KT P6SM SCT250=

USA.gov is the U.S. government's official web portal to all federal, state and local government web resources and services.